Hovedside
METAR-TAF:

METAR-TAF

Lufthavner :

Sibu, Malaysia

breddegrad: 02-20N, lengdegrad: 111-50E, høyde over havet: 8 m

Gjeldene værobservasjon

Denne rapporten ble laget for 1 time og 13 minutter siden, klokken 02:00 UTC
Vind 3 kt fra Vest, skiftende mellom Sør-sørvest og Vest-nordvest
Temperatur 29°C
Luftfuktighet 79%
Trykk 1010 hPa
Sikt 10 km eller mer
Spredte skyer i en høyde av 1600 ft

METAR: WBGS 220200Z 26003KT 200V300 9999 SCT016 29/25 Q1010

Tid: 11:13 (03:13 UTC)

Varsel

Denne rapporten ble laget for 4 timer og 13 minutter siden, klokken 23:00 UTC
Varsel gyldig fra 22. klokken 00 UTC til 23. klokken 00 UTC
Vind 2 kt fra skiftende retning
Sikt 10 km eller mer
Få skyer i en høyde av 1800 ft
Midlertidig
fra 22. klokken 06 UTC til 22. klokken 10 UTC
Vind 6 kt fra Sørøst
Sikt: 4000 m
Få skyer i en høyde av 1500 ft, Bygeskyer.
Spredte skyer i en høyde av 1600 ft
torden, regn,

TAF: WBGS 212300Z 2200/2300 VRB02KT 9999 FEW018 TEMPO 2206/2210 14006KT 4000 TSRA FEW015CB SCT016

Værobservasjoner og værvarsel for over 4000 flyplasser (METAR- og TAF-rapporter).

Tilgjengelige stasjoner er representert av de røde og gule prikkene på kartet.

Hold musepekeren over prikken for å se navnet på stasjonen.

Klikk så for å se værobservasjoner og -varsler.

For å forandre kartet kan du klikke på den grønne knappen med svart kryss for å zoome inn, på den grønne knappen med strek for å zoome ut, eller på de grønne pilene for å se tilstøtende kart.


METAR-TAF: